Time;durP1;ratioP1;P1;durP2;ratioP2;P2;SDS_P1;SDS_P2;PMS_P1;PMS_P2;Temp;Humidity;BMP_temperature;BMP_pressure;BME280_temperature;BME280_humidity;BME280_pressure;Samples;Min_cycle;Max_cycle;Signal;HPM_P1;HPM_P2
2021/03/27 00:02:22;;;;;;;31.43;14.20;;;3.00;79.60;;;;;;5052037;28;20286;-76
2021/03/27 00:04:53;;;;;;;17.27;10.27;;;3.00;79.60;;;;;;5057290;28;20178;-77
2021/03/27 00:07:32;;;;;;;27.53;11.30;;;3.00;80.00;;;;;;5051991;28;20187;-77
2021/03/27 00:10:06;;;;;;;24.37;12.97;;;2.90;80.00;;;;;;5049338;28;20199;-77
2021/03/27 00:12:50;;;;;;;25.67;12.30;;;2.90;80.60;;;;;;5052863;28;20176;-76
2021/03/27 00:15:36;;;;;;;23.50;10.80;;;2.80;80.70;;;;;;5052098;28;20180;-75
2021/03/27 00:18:17;;;;;;;26.47;12.33;;;2.80;80.50;;;;;;5047993;28;20256;-76
2021/03/27 00:21:18;;;;;;;26.73;13.07;;;2.80;80.80;;;;;;5052584;28;20262;-76
2021/03/27 00:23:56;;;;;;;21.83;10.50;;;2.80;80.60;;;;;;5040535;28;20187;-76
2021/03/27 00:26:28;;;;;;;26.40;13.30;;;2.80;80.80;;;;;;5081290;28;20250;-77
2021/03/27 00:29:01;;;;;;;23.50;12.47;;;2.70;80.60;;;;;;5085877;28;20861;-78
2021/03/27 00:31:43;;;;;;;17.20;11.07;;;2.70;80.30;;;;;;5053263;28;20188;-76
2021/03/27 00:34:14;;;;;;;23.43;11.67;;;2.60;80.60;;;;;;5055562;28;20198;-76
2021/03/27 00:36:51;;;;;;;22.17;12.13;;;2.60;80.70;;;;;;5050482;28;20187;-77
2021/03/27 00:39:45;;;;;;;28.10;12.53;;;2.60;80.90;;;;;;5060780;28;20202;-77
2021/03/27 00:42:16;;;;;;;15.57;10.03;;;2.60;81.00;;;;;;5029564;28;20207;-77
2021/03/27 00:44:55;;;;;;;20.60;11.17;;;2.60;81.70;;;;;;5035072;28;20222;-76
2021/03/27 00:47:27;;;;;;;18.97;10.47;;;2.60;82.00;;;;;;5022897;28;20207;-76
2021/03/27 00:50:01;;;;;;;24.20;11.73;;;2.60;82.20;;;;;;5033627;28;20211;-76
2021/03/27 00:52:29;;;;;;;25.03;10.17;;;2.50;81.60;;;;;;5037153;28;20191;-77
2021/03/27 00:55:06;;;;;;;22.93;11.83;;;2.50;81.50;;;;;;5029384;28;20183;-77
2021/03/27 00:57:46;;;;;;;19.87;10.10;;;2.50;81.70;;;;;;5018047;28;20330;-78
2021/03/27 01:00:26;;;;;;;26.23;11.57;;;2.40;81.80;;;;;;5034447;28;20207;-76
2021/03/27 01:02:58;;;;;;;27.53;10.83;;;2.40;82.00;;;;;;5036474;28;20192;-77
2021/03/27 01:05:27;;;;;;;17.90;10.47;;;2.40;81.80;;;;;;5036764;28;20233;-77
2021/03/27 01:07:56;;;;;;;17.10;9.10;;;2.40;81.90;;;;;;5012329;28;20195;-77
2021/03/27 01:10:33;;;;;;;18.93;10.27;;;2.30;81.90;;;;;;5038216;28;20791;-77
2021/03/27 01:13:20;;;;;;;19.23;10.67;;;2.30;82.00;;;;;;5033836;28;20195;-77
2021/03/27 01:15:52;;;;;;;14.43;9.80;;;2.30;81.70;;;;;;5045537;28;20256;-77
2021/03/27 01:18:34;;;;;;;19.90;11.60;;;2.30;81.80;;;;;;5035868;28;20207;-76
2021/03/27 01:21:08;;;;;;;17.33;10.17;;;2.30;81.70;;;;;;5052923;28;20881;-77
2021/03/27 01:23:34;;;;;;;20.57;10.93;;;2.30;82.00;;;;;;5041384;28;20180;-78
2021/03/27 01:26:05;;;;;;;24.73;12.63;;;2.30;82.10;;;;;;5050764;28;20203;-77
2021/03/27 01:28:45;;;;;;;22.50;11.00;;;2.20;82.00;;;;;;5050553;28;20756;-77
2021/03/27 01:31:38;;;;;;;19.37;10.97;;;2.20;82.10;;;;;;5048225;28;20179;-77
2021/03/27 01:34:14;;;;;;;21.17;12.10;;;2.20;82.10;;;;;;5061103;28;20630;-77
2021/03/27 01:36:47;;;;;;;19.07;11.67;;;2.10;82.30;;;;;;5050269;28;20180;-77
2021/03/27 01:39:16;;;;;;;24.50;11.87;;;2.10;82.30;;;;;;5066888;28;20685;-77
2021/03/27 01:42:03;;;;;;;19.10;13.00;;;2.10;82.60;;;;;;5051073;28;20196;-76
2021/03/27 01:44:48;;;;;;;23.80;13.30;;;2.00;82.70;;;;;;5056480;28;20255;-77
2021/03/27 01:47:26;;;;;;;29.73;13.57;;;2.00;82.70;;;;;;5053769;28;20660;-77
2021/03/27 01:50:20;;;;;;;24.27;13.80;;;2.00;83.00;;;;;;5054067;28;20718;-77
2021/03/27 01:52:57;;;;;;;33.90;14.37;;;2.00;83.00;;;;;;5082615;28;20602;-77
2021/03/27 01:55:48;;;;;;;24.60;13.60;;;1.90;83.10;;;;;;5058070;28;20191;-77
2021/03/27 01:58:24;;;;;;;29.47;13.23;;;1.90;83.10;;;;;;5055833;28;20278;-76
2021/03/27 02:01:03;;;;;;;18.60;10.93;;;1.80;83.30;;;;;;5055424;28;20193;-76
2021/03/27 02:03:40;;;;;;;27.73;13.33;;;1.80;83.40;;;;;;5059239;28;21191;-76
2021/03/27 02:06:26;;;;;;;29.23;13.60;;;1.80;83.60;;;;;;5065858;28;20211;-77
2021/03/27 02:08:57;;;;;;;23.80;13.27;;;1.80;83.70;;;;;;5055333;28;20203;-76
2021/03/27 02:11:49;;;;;;;26.13;12.30;;;1.70;83.60;;;;;;5051582;28;20262;-76
2021/03/27 02:14:21;;;;;;;25.57;12.13;;;1.70;83.70;;;;;;5045626;28;20230;-75
2021/03/27 02:16:57;;;;;;;28.80;11.33;;;1.70;84.20;;;;;;5042096;28;20195;-75
2021/03/27 02:20:00;;;;;;;20.83;12.47;;;1.70;84.00;;;;;;5050556;28;20187;-78
2021/03/27 02:22:32;;;;;;;23.20;11.67;;;1.70;83.90;;;;;;5083265;28;20209;-77
2021/03/27 02:25:16;;;;;;;22.40;11.63;;;1.70;84.00;;;;;;5060129;28;20657;-77
2021/03/27 02:28:05;;;;;;;20.57;10.97;;;1.70;84.20;;;;;;5055693;28;20575;-77
2021/03/27 02:30:39;;;;;;;26.97;13.10;;;1.60;84.20;;;;;;5048756;28;20208;-77
2021/03/27 02:33:14;;;;;;;25.30;13.37;;;1.60;84.50;;;;;;5051475;28;20266;-77
2021/03/27 02:36:00;;;;;;;25.07;13.00;;;1.60;84.50;;;;;;5049749;28;20659;-78
2021/03/27 02:38:42;;;;;;;32.37;13.00;;;1.60;84.50;;;;;;5082657;28;20190;-78
2021/03/27 02:41:33;;;;;;;24.57;13.07;;;1.60;84.90;;;;;;5055638;28;20175;-78
2021/03/27 02:44:04;;;;;;;27.43;11.90;;;1.50;84.70;;;;;;5028825;28;20227;-77
2021/03/27 02:46:43;;;;;;;25.83;12.60;;;1.50;85.00;;;;;;5028229;28;20208;-77
2021/03/27 02:49:18;;;;;;;22.07;12.03;;;1.50;84.70;;;;;;5015694;28;20298;-77
2021/03/27 02:52:13;;;;;;;21.83;12.03;;;1.50;85.20;;;;;;5045340;28;20567;-77
2021/03/27 02:54:55;;;;;;;20.80;10.97;;;1.50;85.10;;;;;;5032651;28;20231;-78
2021/03/27 02:57:49;;;;;;;23.00;10.47;;;1.40;85.10;;;;;;5012147;28;20563;-78
2021/03/27 03:00:34;;;;;;;25.80;11.27;;;1.40;85.50;;;;;;5034151;28;20180;-77
2021/03/27 03:03:06;;;;;;;29.77;13.97;;;1.40;85.40;;;;;;5033960;28;20192;-78
2021/03/27 03:05:35;;;;;;;21.37;10.90;;;1.30;85.60;;;;;;5015583;28;20184;-76
2021/03/27 03:08:29;;;;;;;22.17;11.63;;;1.30;86.00;;;;;;5026484;28;20602;-77
2021/03/27 03:11:10;;;;;;;19.23;11.20;;;1.30;85.90;;;;;;5015267;28;20211;-76
2021/03/27 03:13:45;;;;;;;23.97;12.50;;;1.30;86.60;;;;;;5042358;28;20183;-76
2021/03/27 03:16:48;;;;;;;35.00;12.37;;;1.20;86.50;;;;;;5019423;28;20198;-76
2021/03/27 03:19:20;;;;;;;20.63;11.80;;;1.20;86.40;;;;;;5029031;28;20656;-77
2021/03/27 03:22:03;;;;;;;21.33;11.73;;;1.20;86.30;;;;;;5044775;28;20196;-76
2021/03/27 03:24:37;;;;;;;18.00;10.13;;;1.20;86.30;;;;;;5048100;28;20981;-75
2021/03/27 03:27:07;;;;;;;18.30;11.87;;;1.20;86.90;;;;;;5064848;28;20226;-76
2021/03/27 03:29:54;;;;;;;17.20;9.67;;;1.20;86.90;;;;;;5081811;28;20221;-77
2021/03/27 03:32:31;;;;;;;20.87;10.70;;;1.10;86.90;;;;;;5057332;28;20183;-77
2021/03/27 03:35:25;;;;;;;18.70;10.33;;;1.10;87.00;;;;;;5071095;28;20932;-77
2021/03/27 03:38:17;;;;;;;20.13;11.77;;;1.00;87.10;;;;;;5053667;28;20179;-75
2021/03/27 03:40:49;;;;;;;19.93;11.27;;;1.00;86.70;;;;;;5063922;28;20213;-77
2021/03/27 03:43:19;;;;;;;21.90;11.00;;;1.00;87.00;;;;;;5055306;28;20286;-77
2021/03/27 03:46:15;;;;;;;21.80;11.17;;;1.00;86.80;;;;;;5052511;28;20187;-77
2021/03/27 03:48:47;;;;;;;19.13;11.00;;;1.00;86.70;;;;;;5075691;28;20206;-75
2021/03/27 03:51:44;;;;;;;21.80;12.00;;;1.00;86.60;;;;;;5063287;28;20194;-77
2021/03/27 03:54:34;;;;;;;11.70;8.30;;;1.00;86.70;;;;;;5053624;28;20199;-77
2021/03/27 03:57:11;;;;;;;19.67;10.17;;;1.00;87.00;;;;;;5068263;28;20187;-77
2021/03/27 03:59:41;;;;;;;26.20;10.57;;;0.90;87.10;;;;;;5054520;28;20225;-77
2021/03/27 04:02:23;;;;;;;14.00;10.10;;;0.90;87.10;;;;;;5056799;28;20233;-77
2021/03/27 04:04:57;;;;;;;17.23;9.27;;;0.90;87.20;;;;;;5090820;28;20214;-77
2021/03/27 04:07:40;;;;;;;17.07;9.93;;;0.90;87.10;;;;;;5048318;28;20176;-77
2021/03/27 04:10:21;;;;;;;16.60;10.10;;;0.90;87.10;;;;;;5066647;28;20198;-77
2021/03/27 04:13:01;;;;;;;17.23;11.40;;;0.90;87.30;;;;;;5070997;28;20610;-77
2021/03/27 04:15:53;;;;;;;16.13;9.83;;;0.90;87.40;;;;;;5057285;28;20270;-78
2021/03/27 04:18:25;;;;;;;22.57;9.97;;;0.90;87.30;;;;;;5084523;28;20179;-77
2021/03/27 04:21:19;;;;;;;22.47;11.10;;;0.90;87.50;;;;;;5087010;28;20186;-77
2021/03/27 04:24:01;;;;;;;21.97;10.67;;;0.80;87.70;;;;;;5055402;28;20224;-77
2021/03/27 04:26:37;;;;;;;15.23;9.33;;;0.80;87.60;;;;;;5056761;28;20769;-77
2021/03/27 04:29:28;;;;;;;18.43;10.90;;;0.80;87.70;;;;;;5046111;28;20213;-76
2021/03/27 04:32:22;;;;;;;14.30;10.00;;;0.80;87.90;;;;;;5084208;28;20660;-76
2021/03/27 04:35:03;;;;;;;22.33;9.93;;;0.80;87.70;;;;;;5032531;28;20192;-76
2021/03/27 04:37:35;;;;;;;19.27;11.07;;;0.80;88.10;;;;;;5026082;28;20267;-76
2021/03/27 04:40:04;;;;;;;23.93;9.33;;;0.80;88.20;;;;;;5020563;28;20200;-76
2021/03/27 04:42:42;;;;;;;15.33;9.27;;;0.80;88.00;;;;;;5028398;28;20188;-77
2021/03/27 04:45:12;;;;;;;19.23;10.97;;;0.80;87.80;;;;;;5022111;28;20339;-77
2021/03/27 04:47:45;;;;;;;19.00;10.67;;;0.80;88.30;;;;;;5028267;28;20231;-76
2021/03/27 04:50:44;;;;;;;20.47;10.90;;;0.80;88.10;;;;;;5033752;28;20200;-77
2021/03/27 04:53:17;;;;;;;19.00;9.70;;;0.90;88.10;;;;;;5029191;28;20197;-77
2021/03/27 04:55:52;;;;;;;19.70;12.37;;;0.90;88.20;;;;;;5034909;28;20568;-76
2021/03/27 04:58:26;;;;;;;17.93;10.90;;;0.90;88.10;;;;;;5034783;28;20564;-77
2021/03/27 05:01:05;;;;;;;18.13;11.23;;;1.00;88.20;;;;;;5015413;28;20192;-76
2021/03/27 05:03:41;;;;;;;16.00;10.37;;;1.00;88.10;;;;;;5024504;28;20184;-76
2021/03/27 05:06:58;;;;;;;24.37;11.37;;;1.00;88.00;;;;;;5036163;28;20198;-76
2021/03/27 05:09:57;;;;;;;20.93;9.27;;;1.10;87.80;;;;;;4959648;28;20218;-76
2021/03/27 05:12:30;;;;;;;25.13;11.13;;;1.20;87.90;;;;;;4968808;28;20194;-76
2021/03/27 05:15:13;;;;;;;18.27;11.07;;;1.20;87.80;;;;;;4997408;28;20295;-77
2021/03/27 05:17:44;;;;;;;15.93;9.53;;;1.20;87.60;;;;;;4990457;28;20178;-75
2021/03/27 05:20:31;;;;;;;22.07;10.37;;;1.30;87.50;;;;;;4995671;28;20196;-76
2021/03/27 05:23:28;;;;;;;15.13;9.47;;;1.30;87.50;;;;;;4989778;28;20255;-77
2021/03/27 05:26:07;;;;;;;17.50;11.00;;;1.30;87.30;;;;;;4982035;28;20776;-76
2021/03/27 05:29:12;;;;;;;20.40;10.23;;;1.40;87.30;;;;;;4996715;28;20197;-77
2021/03/27 05:32:16;;;;;;;15.57;9.53;;;1.40;87.00;;;;;;4979218;28;20181;-76
2021/03/27 05:34:53;;;;;;;16.80;10.00;;;1.50;87.10;;;;;;4938807;28;20201;-76
2021/03/27 05:37:50;;;;;;;18.27;9.50;;;1.60;87.00;;;;;;4945303;29;20197;-77
2021/03/27 05:40:25;;;;;;;29.17;10.70;;;1.60;86.90;;;;;;4920108;29;20586;-76
2021/03/27 05:43:12;;;;;;;13.17;9.63;;;1.70;86.80;;;;;;4907773;29;20183;-75
2021/03/27 05:45:55;;;;;;;20.77;11.50;;;1.70;86.60;;;;;;4941712;29;20360;-77
2021/03/27 05:48:54;;;;;;;15.70;9.97;;;1.80;86.80;;;;;;4933387;29;20191;-75
2021/03/27 05:51:38;;;;;;;23.57;10.70;;;1.90;86.80;;;;;;4967404;28;20206;-76
2021/03/27 05:54:14;;;;;;;17.43;9.70;;;2.00;86.50;;;;;;4946017;28;20186;-76
2021/03/27 05:56:59;;;;;;;16.50;9.93;;;2.00;86.90;;;;;;4954145;28;20580;-76
2021/03/27 05:59:52;;;;;;;16.07;9.87;;;2.10;86.60;;;;;;4951288;28;20294;-77
2021/03/27 06:02:42;;;;;;;16.47;9.60;;;2.20;86.20;;;;;;4935251;29;20242;-76
2021/03/27 06:05:13;;;;;;;14.97;7.90;;;2.30;86.10;;;;;;4959887;28;20251;-76
2021/03/27 06:08:05;;;;;;;14.23;8.17;;;2.30;85.50;;;;;;4970542;28;20183;-77
2021/03/27 06:10:45;;;;;;;10.30;6.90;;;2.40;85.10;;;;;;4958389;28;20245;-77
2021/03/27 06:13:19;;;;;;;10.67;7.23;;;2.50;84.90;;;;;;4968874;28;20690;-76
2021/03/27 06:16:11;;;;;;;15.17;8.23;;;2.50;84.60;;;;;;4962882;28;20197;-76
2021/03/27 06:18:42;;;;;;;8.97;6.53;;;2.60;83.70;;;;;;5009402;28;20206;-76
2021/03/27 06:21:15;;;;;;;11.37;7.00;;;2.70;83.90;;;;;;5013762;28;20185;-77
2021/03/27 06:24:02;;;;;;;14.60;6.87;;;2.80;82.60;;;;;;5010201;28;20188;-78
2021/03/27 06:26:34;;;;;;;10.53;6.67;;;2.80;82.40;;;;;;5002751;28;20601;-78
2021/03/27 06:29:23;;;;;;;10.43;6.00;;;2.90;82.10;;;;;;5010015;28;20220;-78
2021/03/27 06:32:07;;;;;;;10.47;6.03;;;2.90;81.90;;;;;;4996290;28;20254;-77
2021/03/27 06:34:38;;;;;;;15.30;6.70;;;3.00;81.80;;;;;;5006784;28;20198;-78
2021/03/27 06:37:31;;;;;;;6.50;4.67;;;3.00;81.90;;;;;;4993802;28;20190;-77
2021/03/27 06:40:08;;;;;;;9.57;5.70;;;3.10;80.90;;;;;;5018118;28;20219;-77
2021/03/27 06:43:13;;;;;;;11.53;6.43;;;3.20;80.20;;;;;;5023335;28;20199;-77
2021/03/27 06:45:56;;;;;;;9.37;6.10;;;3.30;80.40;;;;;;5002630;28;20209;-78
2021/03/27 06:48:47;;;;;;;10.03;6.40;;;3.40;80.20;;;;;;5038014;28;20200;-78
2021/03/27 06:51:37;;;;;;;10.40;6.83;;;3.50;79.80;;;;;;5052367;28;20194;-78
2021/03/27 06:54:20;;;;;;;10.17;7.07;;;3.60;79.80;;;;;;5059952;28;20184;-75
2021/03/27 06:57:10;;;;;;;12.40;7.70;;;3.70;79.10;;;;;;5045555;28;20672;-76
2021/03/27 06:59:55;;;;;;;9.53;7.27;;;3.80;79.10;;;;;;5045480;28;20267;-76
2021/03/27 07:02:42;;;;;;;11.60;8.13;;;3.80;79.00;;;;;;5077600;28;20196;-77
2021/03/27 07:05:43;;;;;;;12.77;6.77;;;3.90;78.50;;;;;;5045335;28;20198;-76
2021/03/27 07:08:39;;;;;;;10.07;7.17;;;3.90;78.40;;;;;;5056868;28;20206;-74
2021/03/27 07:11:29;;;;;;;12.90;7.93;;;4.10;78.70;;;;;;5058112;28;20186;-76
2021/03/27 07:14:26;;;;;;;12.43;8.30;;;4.10;78.20;;;;;;5090059;28;20187;-76
2021/03/27 07:17:22;;;;;;;15.53;8.17;;;4.20;78.20;;;;;;5043669;28;20222;-77
2021/03/27 07:20:00;;;;;;;14.73;8.27;;;4.30;78.00;;;;;;5045708;28;20187;-76
2021/03/27 07:22:44;;;;;;;13.77;8.07;;;4.40;78.30;;;;;;5051149;28;20687;-76
2021/03/27 07:25:47;;;;;;;18.80;8.00;;;4.60;77.70;;;;;;5044838;28;20262;-75
2021/03/27 07:28:48;;;;;;;13.07;7.67;;;4.70;76.40;;;;;;5041396;28;20178;-76
2021/03/27 07:31:28;;;;;;;14.40;8.07;;;4.80;77.00;;;;;;5034339;28;20227;-76
2021/03/27 07:34:15;;;;;;;13.03;7.87;;;4.90;76.90;;;;;;5018194;28;20195;-76
2021/03/27 07:37:10;;;;;;;10.53;7.03;;;5.00;76.90;;;;;;5026542;28;20192;-76
2021/03/27 07:40:18;;;;;;;9.33;6.83;;;5.10;76.90;;;;;;5023172;28;20188;-75
2021/03/27 07:43:22;;;;;;;15.47;6.73;;;5.30;76.10;;;;;;5026202;28;20736;-75
2021/03/27 07:45:57;;;;;;;10.20;7.57;;;5.40;75.70;;;;;;4947160;28;20198;-75
2021/03/27 07:48:31;;;;;;;10.60;7.00;;;5.60;75.70;;;;;;4944223;28;20206;-75
2021/03/27 07:50:57;;;;;;;10.63;7.37;;;5.60;75.90;;;;;;4946629;28;20202;-74
2021/03/27 07:53:43;;;;;;;10.20;7.60;;;5.80;75.90;;;;;;4943795;28;20194;-74
2021/03/27 07:56:54;;;;;;;10.77;7.57;;;5.90;74.60;;;;;;4926725;29;20565;-77
2021/03/27 08:00:07;;;;;;;7.10;6.50;;;6.10;75.40;;;;;;4945808;28;20625;-75
2021/03/27 08:03:08;;;;;;;9.43;7.37;;;6.30;75.10;;;;;;4945531;28;20197;-78
2021/03/27 08:06:11;;;;;;;9.97;6.77;;;6.50;73.80;;;;;;4951563;28;20310;-76
2021/03/27 08:08:51;;;;;;;12.53;5.97;;;6.60;74.10;;;;;;4989537;28;20271;-77
2021/03/27 08:11:40;;;;;;;9.77;7.13;;;6.80;73.90;;;;;;4969945;28;20190;-77
2021/03/27 08:14:21;;;;;;;8.90;6.47;;;7.00;72.90;;;;;;4976653;28;20701;-78
2021/03/27 08:16:56;;;;;;;11.03;7.53;;;7.20;72.10;;;;;;4966722;28;20194;-78
2021/03/27 08:19:33;;;;;;;15.67;8.87;;;7.40;71.60;;;;;;4988677;28;20201;-78
2021/03/27 08:22:29;;;;;;;14.43;8.10;;;7.70;71.40;;;;;;5000878;28;20192;-78
2021/03/27 08:24:58;;;;;;;13.33;8.50;;;8.00;69.90;;;;;;5050130;28;20735;-77
2021/03/27 08:27:45;;;;;;;21.83;9.47;;;8.50;69.30;;;;;;5051545;28;20758;-76
2021/03/27 08:30:45;;;;;;;15.10;8.10;;;8.90;68.40;;;;;;5078720;28;20219;-77
2021/03/27 08:33:10;;;;;;;12.70;7.93;;;9.50;67.40;;;;;;5064541;28;20266;-77
2021/03/27 08:35:45;;;;;;;11.67;9.03;;;10.20;67.10;;;;;;5049274;28;20340;-77
2021/03/27 08:38:18;;;;;;;13.87;9.50;;;11.00;65.50;;;;;;5042455;28;20692;-77
2021/03/27 08:40:46;;;;;;;16.87;10.10;;;12.10;63.60;;;;;;5046744;28;20287;-77
2021/03/27 08:43:27;;;;;;;18.27;10.73;;;12.70;62.30;;;;;;5046479;28;20564;-77
2021/03/27 08:46:39;;;;;;;12.50;10.50;;;13.50;60.50;;;;;;5076829;28;20639;-77
2021/03/27 08:49:10;;;;;;;14.40;10.48;;;14.50;59.50;;;;;;5041087;28;20274;-76
2021/03/27 08:52:01;;;;;;;14.15;10.68;;;15.10;56.90;;;;;;5046277;28;20192;-77
2021/03/27 08:54:35;;;;;;;16.63;10.73;;;15.40;55.70;;;;;;5045016;28;20191;-77
2021/03/27 08:57:03;;;;;;;17.42;11.25;;;15.70;55.90;;;;;;5043536;28;20799;-85
2021/03/27 08:59:50;;;;;;;16.58;11.00;;;16.00;55.00;;;;;;5046127;28;20203;-77
2021/03/27 09:02:29;;;;;;;15.40;10.45;;;16.50;54.30;;;;;;5030247;28;20188;-75
2021/03/27 09:05:34;;;;;;;15.23;10.60;;;17.10;54.40;;;;;;5052023;28;20952;-75
2021/03/27 09:08:30;;;;;;;14.98;10.63;;;17.80;53.00;;;;;;5059394;28;20195;-75
2021/03/27 09:11:06;;;;;;;22.42;10.60;;;18.60;51.50;;;;;;5062110;28;20223;-71
2021/03/27 09:13:46;;;;;;;23.48;11.02;;;19.40;50.80;;;;;;5026530;28;20253;-73
2021/03/27 09:16:32;;;;;;;15.88;11.15;;;19.90;49.40;;;;;;5040738;28;20969;-71
2021/03/27 09:19:16;;;;;;;15.35;10.88;;;20.40;48.60;;;;;;5041925;28;20587;-71
2021/03/27 09:22:02;;;;;;;13.88;11.15;;;20.90;47.50;;;;;;5042765;28;20184;-71
2021/03/27 09:24:44;;;;;;;15.40;11.45;;;21.00;46.70;;;;;;5042657;28;20301;-71
2021/03/27 09:27:27;;;;;;;15.25;10.85;;;21.10;46.40;;;;;;5042185;28;20188;-74
2021/03/27 09:30:25;;;;;;;12.48;10.05;;;21.30;47.50;;;;;;5075953;28;20234;-72
2021/03/27 09:33:13;;;;;;;18.63;11.52;;;22.00;46.90;;;;;;5043542;28;20179;-72
2021/03/27 09:36:11;;;;;;;15.00;11.85;;;22.60;47.30;;;;;;5045265;28;20184;-73
2021/03/27 09:38:49;;;;;;;21.35;10.93;;;23.30;46.00;;;;;;5044207;28;20171;-72
2021/03/27 09:41:26;;;;;;;15.45;11.65;;;24.10;45.30;;;;;;5045938;28;20187;-72
2021/03/27 09:44:25;;;;;;;15.77;11.00;;;24.80;44.90;;;;;;5035375;28;20179;-74
2021/03/27 09:47:09;;;;;;;14.73;10.90;;;25.30;44.80;;;;;;5045459;28;20183;-72
2021/03/27 09:49:50;;;;;;;15.05;11.55;;;26.00;44.30;;;;;;5045040;28;20191;-75
2021/03/27 09:52:34;;;;;;;18.20;13.07;;;26.50;43.40;;;;;;5043763;28;20191;-92
2021/03/27 09:55:31;;;;;;;16.42;12.05;;;26.50;40.80;;;;;;5050104;28;20180;-77
2021/03/27 09:58:26;;;;;;;13.02;11.65;;;26.20;41.80;;;;;;5047138;28;20300;-77
2021/03/27 10:00:55;;;;;;;15.93;11.93;;;25.90;41.00;;;;;;5031326;28;20183;-78
2021/03/27 10:03:42;;;;;;;13.55;11.40;;;25.40;42.80;;;;;;5019799;28;20196;-74
2021/03/27 10:06:29;;;;;;;15.07;12.00;;;25.60;42.00;;;;;;5025036;28;20195;-75
2021/03/27 10:08:57;;;;;;;14.30;11.55;;;25.80;42.60;;;;;;5024499;28;20220;-73
2021/03/27 10:11:28;;;;;;;12.45;10.38;;;26.00;42.00;;;;;;5024879;28;20200;-74
2021/03/27 10:14:13;;;;;;;14.60;11.55;;;26.80;44.40;;;;;;5004307;28;20276;-73
2021/03/27 10:16:59;;;;;;;14.25;11.70;;;27.50;41.80;;;;;;5024624;28;20764;-73
2021/03/27 10:19:47;;;;;;;16.65;12.88;;;27.70;40.60;;;;;;5016761;28;20911;-73
2021/03/27 10:22:19;;;;;;;15.98;12.43;;;27.80;40.60;;;;;;5029257;28;20906;-73
2021/03/27 10:25:01;;;;;;;13.88;11.48;;;28.20;43.00;;;;;;5025168;28;20211;-74
2021/03/27 10:27:55;;;;;;;13.00;11.23;;;28.70;42.00;;;;;;5015405;28;20195;-73
2021/03/27 10:30:39;;;;;;;15.95;11.55;;;29.30;39.10;;;;;;5008788;28;20492;-74
2021/03/27 10:33:07;;;;;;;17.33;11.43;;;29.40;40.20;;;;;;5011926;28;20242;-74
2021/03/27 10:35:45;;;;;;;15.40;12.15;;;29.40;42.10;;;;;;5007948;28;20234;-73
2021/03/27 10:38:34;;;;;;;13.90;11.75;;;29.30;40.10;;;;;;5024335;28;20202;-74
2021/03/27 10:41:31;;;;;;;14.45;12.07;;;29.50;39.40;;;;;;5038624;28;20180;-74
2021/03/27 10:44:26;;;;;;;13.50;11.60;;;29.80;38.00;;;;;;5046302;28;20191;-73
2021/03/27 10:47:06;;;;;;;14.75;11.50;;;30.10;39.20;;;;;;5058672;28;20192;-73
2021/03/27 10:49:44;;;;;;;13.85;12.02;;;30.40;39.10;;;;;;5047345;28;20219;-73
2021/03/27 10:52:27;;;;;;;18.00;11.48;;;30.70;37.70;;;;;;5050655;28;20182;-73
2021/03/27 10:55:14;;;;;;;12.48;11.18;;;31.10;38.00;;;;;;5060649;28;20251;-73
2021/03/27 10:58:17;;;;;;;18.25;11.82;;;31.40;40.20;;;;;;5058936;28;20255;-73
2021/03/27 11:00:58;;;;;;;12.90;11.48;;;31.80;37.60;;;;;;5050054;28;20266;-73
2021/03/27 11:03:47;;;;;;;11.70;10.52;;;31.70;37.50;;;;;;5056458;28;20187;-73
2021/03/27 11:06:59;;;;;;;11.65;10.35;;;31.30;39.30;;;;;;5063780;28;20183;-73
2021/03/27 11:09:55;;;;;;;15.75;11.13;;;30.70;36.70;;;;;;5034289;28;20243;-74
2021/03/27 11:12:51;;;;;;;12.98;11.60;;;30.50;39.00;;;;;;5037590;28;20259;-74
2021/03/27 11:15:55;;;;;;;19.05;13.15;;;30.50;37.60;;;;;;5053074;28;20180;-74
2021/03/27 11:18:39;;;;;;;17.08;12.13;;;30.70;37.50;;;;;;4957917;28;20233;-74
2021/03/27 11:21:26;;;;;;;14.60;11.98;;;31.00;39.80;;;;;;4961433;28;20214;-73
2021/03/27 11:24:14;;;;;;;8.27;7.35;;;31.40;38.90;;;;;;4945390;29;20652;-73
2021/03/27 11:26:58;;;;;;;12.80;9.68;;;31.60;35.50;;;;;;4957054;28;20194;-73
2021/03/27 11:29:32;;;;;;;11.02;7.57;;;31.50;38.90;;;;;;4951761;28;20771;-73
2021/03/27 11:32:16;;;;;;;5.78;5.28;;;31.60;37.10;;;;;;4957350;28;20268;-73
2021/03/27 11:34:47;;;;;;;7.32;4.40;;;31.70;34.00;;;;;;4947646;28;20191;-73
2021/03/27 11:37:35;;;;;;;6.18;5.00;;;31.40;36.00;;;;;;4962545;28;20225;-74
2021/03/27 11:40:15;;;;;;;4.22;3.92;;;30.70;36.60;;;;;;4961369;28;20238;-73
2021/03/27 11:43:12;;;;;;;3.42;3.30;;;29.60;35.00;;;;;;4959669;28;20214;-73
2021/03/27 11:45:44;;;;;;;3.83;3.53;;;28.30;35.30;;;;;;4921982;29;20706;-73
2021/03/27 11:48:19;;;;;;;3.83;3.70;;;27.90;39.20;;;;;;4942444;29;21294;-74
2021/03/27 11:50:48;;;;;;;4.00;3.80;;;27.70;36.50;;;;;;4940406;29;20230;-73
2021/03/27 11:53:35;;;;;;;3.47;3.33;;;27.60;37.30;;;;;;4938527;29;20187;-73
2021/03/27 11:56:10;;;;;;;5.47;3.45;;;27.40;36.50;;;;;;4972950;28;20197;-73
2021/03/27 12:02:34;;;;;;;5.25;4.53;;;27.70;37.20;;;;;;4967223;28;20671;-74
2021/03/27 12:05:21;;;;;;;3.85;3.70;;;27.40;37.30;;;;;;4969572;28;20205;-72
2021/03/27 12:07:50;;;;;;;3.75;3.50;;;26.70;36.60;;;;;;4982166;28;20189;-73
2021/03/27 12:10:43;;;;;;;4.07;3.80;;;26.40;38.80;;;;;;4979221;28;20257;-74
2021/03/27 12:13:18;;;;;;;3.80;3.60;;;26.20;37.40;;;;;;4972360;28;20698;-73
2021/03/27 12:16:14;;;;;;;5.13;3.45;;;26.50;39.50;;;;;;4982768;28;20195;-73
2021/03/27 12:19:11;;;;;;;3.13;2.92;;;27.00;37.00;;;;;;4954662;28;20681;-73
2021/03/27 12:22:15;;;;;;;3.40;3.05;;;27.30;37.70;;;;;;4979226;28;20186;-74
2021/03/27 12:25:34;;;;;;;3.47;3.28;;;28.00;37.20;;;;;;5009977;28;20338;-74
2021/03/27 12:28:11;;;;;;;3.67;3.33;;;29.00;36.90;;;;;;5017465;28;20178;-74
2021/03/27 12:31:02;;;;;;;3.10;3.00;;;29.60;38.40;;;;;;5015259;28;20287;-74
2021/03/27 12:33:42;;;;;;;3.38;3.17;;;30.20;36.50;;;;;;5020766;28;20172;-74
2021/03/27 12:36:24;;;;;;;3.00;2.88;;;30.90;36.80;;;;;;5004518;28;20215;-74
2021/03/27 12:39:04;;;;;;;3.28;3.08;;;31.30;37.00;;;;;;5058125;28;20620;-74
2021/03/27 12:41:36;;;;;;;2.70;2.50;;;31.60;34.90;;;;;;5054228;28;20190;-74
2021/03/27 12:44:04;;;;;;;3.25;3.05;;;30.40;37.40;;;;;;5054675;28;20329;-75
2021/03/27 12:46:50;;;;;;;3.22;3.13;;;29.90;36.60;;;;;;5054298;28;20186;-74
2021/03/27 12:49:31;;;;;;;3.13;2.92;;;29.60;36.10;;;;;;5079254;28;20357;-73
2021/03/27 12:52:34;;;;;;;3.50;3.20;;;29.90;35.30;;;;;;5053368;28;20199;-73
2021/03/27 12:55:22;;;;;;;4.60;3.25;;;30.30;36.20;;;;;;5047857;28;20179;-73
2021/03/27 12:58:09;;;;;;;2.80;2.70;;;30.80;36.70;;;;;;5058944;28;20188;-73
2021/03/27 13:00:48;;;;;;;2.88;2.78;;;31.10;34.70;;;;;;5051137;28;20269;-73
2021/03/27 13:03:32;;;;;;;2.33;2.33;;;30.80;35.20;;;;;;5052485;28;20176;-74
2021/03/27 13:06:09;;;;;;;2.92;2.80;;;30.70;36.30;;;;;;5047175;28;20659;-76
2021/03/27 13:08:40;;;;;;;3.20;3.10;;;30.80;35.00;;;;;;5045341;28;20865;-76
2021/03/27 13:11:18;;;;;;;2.97;2.88;;;29.80;35.50;;;;;;5053513;28;20211;-77
2021/03/27 13:13:50;;;;;;;2.70;2.50;;;28.60;36.20;;;;;;5050615;28;20292;-76
2021/03/27 13:16:28;;;;;;;3.20;3.00;;;28.20;37.10;;;;;;5054812;28;20191;-75
2021/03/27 13:18:56;;;;;;;6.13;3.42;;;28.50;38.40;;;;;;5050410;28;20175;-75
2021/03/27 13:21:42;;;;;;;3.03;2.92;;;28.90;37.70;;;;;;5051867;28;20180;-78
2021/03/27 13:24:12;;;;;;;2.97;2.78;;;28.80;37.40;;;;;;5055150;28;20199;-76
2021/03/27 13:26:39;;;;;;;7.93;3.50;;;28.50;37.10;;;;;;5055706;28;20185;-78
2021/03/27 13:29:34;;;;;;;3.42;3.33;;;28.50;35.80;;;;;;5057464;28;20578;-76
2021/03/27 13:32:08;;;;;;;3.03;2.92;;;28.70;38.70;;;;;;5047005;28;20179;-74
2021/03/27 13:34:41;;;;;;;2.67;2.58;;;28.90;38.10;;;;;;5052418;28;20221;-74
2021/03/27 13:37:25;;;;;;;3.17;2.97;;;29.10;36.80;;;;;;5038138;28;20958;-76
2021/03/27 13:40:19;;;;;;;2.58;2.50;;;29.00;35.80;;;;;;5052570;28;20175;-75
2021/03/27 13:42:59;;;;;;;2.88;2.78;;;28.70;35.70;;;;;;5048829;28;20200;-76
2021/03/27 13:45:46;;;;;;;3.35;3.13;;;28.70;36.20;;;;;;5052093;28;20614;-76
2021/03/27 13:48:33;;;;;;;3.30;3.10;;;28.90;37.30;;;;;;5051123;28;20218;-76
2021/03/27 13:51:17;;;;;;;3.55;3.25;;;29.30;35.70;;;;;;5057392;28;20919;-76
2021/03/27 13:53:48;;;;;;;3.60;3.40;;;28.80;35.60;;;;;;5048488;28;20203;-77
2021/03/27 13:56:34;;;;;;;3.47;3.30;;;28.50;37.80;;;;;;5052407;28;20274;-77
2021/03/27 13:59:03;;;;;;;2.85;2.75;;;28.40;37.50;;;;;;5047013;28;20246;-76
2021/03/27 14:01:44;;;;;;;3.53;3.25;;;27.90;37.10;;;;;;5028618;28;20204;-76
2021/03/27 14:04:26;;;;;;;3.15;3.05;;;27.70;37.90;;;;;;5061169;28;20290;-76
2021/03/27 14:06:56;;;;;;;3.30;3.00;;;27.70;37.70;;;;;;5060905;28;20232;-76